createdAt,value
2018-10-19T00:01:08.670Z,82.88
2018-10-19T00:03:38.542Z,82.77
2018-10-19T00:06:08.461Z,82.39
2018-10-19T00:08:38.330Z,82.63
2018-10-19T00:11:08.571Z,83.05
2018-10-19T00:13:38.455Z,83.19
2018-10-19T00:16:08.606Z,83.26
2018-10-19T00:18:38.683Z,83.21
2018-10-19T00:21:08.821Z,82.91
2018-10-19T00:23:38.900Z,83.17
2018-10-19T00:26:08.848Z,82.62
2018-10-19T00:28:39.097Z,83.22
2018-10-19T00:31:09.108Z,83.32
2018-10-19T00:33:39.331Z,82.98
2018-10-19T00:36:09.381Z,83.48
2018-10-19T00:38:39.411Z,83.12
2018-10-19T00:41:09.560Z,82.71
2018-10-19T00:43:39.427Z,82.37
2018-10-19T00:46:09.534Z,83.42
2018-10-19T00:48:39.765Z,83.32
2018-10-19T00:51:09.692Z,83.30
2018-10-19T00:53:39.731Z,83.28
2018-10-19T00:56:09.755Z,83.38
2018-10-19T00:58:39.742Z,83.62
2018-10-19T01:01:09.604Z,83.92
2018-10-19T01:03:39.771Z,83.92
2018-10-19T01:06:09.904Z,83.38
2018-10-19T01:08:39.999Z,83.55
2018-10-19T01:11:10.022Z,83.91
2018-10-19T01:13:39.946Z,83.70
2018-10-19T01:16:09.841Z,83.55
2018-10-19T01:18:40.254Z,83.33
2018-10-19T01:21:10.513Z,83.75
2018-10-19T01:23:40.427Z,83.30
2018-10-19T01:26:10.552Z,83.60
2018-10-19T01:28:40.523Z,83.20
2018-10-19T01:31:10.459Z,83.23
2018-10-19T01:33:40.892Z,83.32
2018-10-19T01:36:10.957Z,82.52
2018-10-19T01:38:40.837Z,83.22
2018-10-19T01:41:11.048Z,83.80
2018-10-19T01:43:40.924Z,84.15
2018-10-19T01:46:11.027Z,84.05
2018-10-19T01:48:41.230Z,84.12
2018-10-19T01:51:11.437Z,83.17
2018-10-19T01:53:41.446Z,83.62
2018-10-19T01:56:11.344Z,84.09
2018-10-19T01:58:41.316Z,83.93
2018-10-19T02:01:11.260Z,83.46
2018-10-19T02:03:41.303Z,84.13
2018-10-19T02:06:11.424Z,84.54
2018-10-19T02:08:41.280Z,83.86
2018-10-19T02:11:11.242Z,84.41
2018-10-19T02:13:41.192Z,84.84
2018-10-19T02:16:11.199Z,84.36
2018-10-19T02:18:41.427Z,84.47
2018-10-19T02:21:11.322Z,83.96
2018-10-19T02:23:41.379Z,83.83
2018-10-19T02:26:11.441Z,83.28
2018-10-19T02:28:41.297Z,83.22
2018-10-19T02:31:11.363Z,83.52
2018-10-19T02:33:41.447Z,83.93
2018-10-19T02:36:11.311Z,83.77
2018-10-19T02:38:41.344Z,83.03
2018-10-19T02:41:11.474Z,83.77
2018-10-19T02:43:41.446Z,84.53
2018-10-19T02:46:11.579Z,83.84
2018-10-19T02:48:41.757Z,82.91
2018-10-19T02:51:11.862Z,82.90
2018-10-19T02:53:41.828Z,84.03
2018-10-19T02:56:11.998Z,84.10
2018-10-19T02:58:42.096Z,84.27
2018-10-19T03:01:11.962Z,83.94
2018-10-19T03:03:41.931Z,83.43
2018-10-19T03:06:12.021Z,83.28
2018-10-19T03:08:41.915Z,82.83
2018-10-19T03:11:12.023Z,82.72
2018-10-19T03:13:41.896Z,83.67
2018-10-19T03:16:11.913Z,84.57
2018-10-19T03:18:42.028Z,84.51
2018-10-19T03:21:11.987Z,84.03
2018-10-19T03:23:42.200Z,84.68
2018-10-19T03:26:12.255Z,83.71
2018-10-19T03:28:43.271Z,84.16
2018-10-19T03:31:13.503Z,83.56
2018-10-19T03:33:43.485Z,84.98
2018-10-19T03:36:13.469Z,85.01
2018-10-19T03:38:43.858Z,85.13
2018-10-19T03:41:13.824Z,84.73
2018-10-19T03:43:43.716Z,84.25
2018-10-19T03:46:13.782Z,84.34
2018-10-19T03:48:44.023Z,85.19
2018-10-19T03:51:14.068Z,84.77
2018-10-19T03:53:44.192Z,84.58
2018-10-19T03:56:14.605Z,85.43
2018-10-19T03:58:44.574Z,85.13
2018-10-19T04:01:14.608Z,84.27
2018-10-19T04:03:44.819Z,84.82
2018-10-19T04:06:14.652Z,84.42
2018-10-19T04:08:44.605Z,84.39
2018-10-19T04:11:14.874Z,85.03
2018-10-19T04:13:45.009Z,84.11
2018-10-19T04:16:15.218Z,84.38
2018-10-19T04:18:45.144Z,83.68
2018-10-19T04:21:15.901Z,83.70
2018-10-19T04:23:45.858Z,84.37
2018-10-19T04:26:15.761Z,84.15
2018-10-19T04:28:45.768Z,83.80
2018-10-19T04:31:15.753Z,84.20
2018-10-19T04:33:45.786Z,84.36
2018-10-19T04:36:15.746Z,84.00
2018-10-19T04:38:45.719Z,85.37
2018-10-19T04:41:15.795Z,85.34
2018-10-19T04:43:45.932Z,84.95
2018-10-19T04:46:15.892Z,84.55
2018-10-19T04:48:46.674Z,84.98
2018-10-19T04:51:16.821Z,84.62
2018-10-19T04:53:46.987Z,84.56
2018-10-19T04:56:17.065Z,84.93
2018-10-19T04:58:46.957Z,84.97
2018-10-19T05:01:17.077Z,85.47
2018-10-19T05:03:47.508Z,85.91
2018-10-19T05:06:17.527Z,86.40
2018-10-19T05:08:47.575Z,85.62
2018-10-19T05:11:18.007Z,84.85
2018-10-19T05:13:49.919Z,86.15
2018-10-19T05:16:22.094Z,85.68
2018-10-19T05:18:52.439Z,85.35
2018-10-19T05:21:22.800Z,85.76
2018-10-19T05:23:52.845Z,85.50
2018-10-19T05:26:22.783Z,84.75
2018-10-19T05:28:52.843Z,84.93
2018-10-19T05:31:24.336Z,85.77
2018-10-19T05:33:56.649Z,85.88
2018-10-19T05:36:27.206Z,85.54
2018-10-19T05:38:57.377Z,85.73
2018-10-19T05:41:27.384Z,85.83
2018-10-19T05:43:57.380Z,85.85
2018-10-19T05:46:28.367Z,85.28
2018-10-19T05:48:58.744Z,84.90
2018-10-19T05:51:28.688Z,85.42
2018-10-19T05:53:58.892Z,85.37
2018-10-19T05:56:28.770Z,85.40
2018-10-19T05:58:58.692Z,85.30
2018-10-19T06:01:28.668Z,85.98
2018-10-19T06:03:58.670Z,86.21
2018-10-19T06:06:29.385Z,85.55
2018-10-19T06:09:17.914Z,85.73
2018-10-19T06:11:47.881Z,84.82
2018-10-19T06:14:17.847Z,85.70
2018-10-19T06:16:49.324Z,85.67
2018-10-19T06:19:21.184Z,85.88
2018-10-19T06:21:51.031Z,85.76
2018-10-19T06:24:21.868Z,85.71
2018-10-19T06:26:51.904Z,86.01
2018-10-19T06:29:23.292Z,85.44
2018-10-19T06:31:53.281Z,85.51
2018-10-19T06:34:23.255Z,84.99
2018-10-19T06:36:55.625Z,84.95
2018-10-19T06:39:28.328Z,85.45
2018-10-19T06:41:58.554Z,84.77
2018-10-19T06:44:41.527Z,85.57
2018-10-19T06:47:12.837Z,85.28
2018-10-19T06:49:42.757Z,85.35
2018-10-19T06:52:12.658Z,85.30
2018-10-19T06:54:42.661Z,85.51
2018-10-19T06:57:16.707Z,85.86
2018-10-19T06:59:47.319Z,85.00
2018-10-19T07:02:17.535Z,85.16
2018-10-19T07:04:47.407Z,85.54
2018-10-19T07:07:17.607Z,86.02
2018-10-19T07:09:47.767Z,85.99
2018-10-19T07:12:18.253Z,85.40
2018-10-19T07:14:48.752Z,85.41
2018-10-19T07:17:18.943Z,86.12
2018-10-19T07:19:51.034Z,85.06
2018-10-19T07:22:21.018Z,84.10
2018-10-19T07:24:52.117Z,84.42
2018-10-19T07:27:22.106Z,84.98
2018-10-19T07:29:52.317Z,85.29
2018-10-19T07:32:22.484Z,85.78
2018-10-19T07:34:52.796Z,85.28
2018-10-19T07:37:22.751Z,85.02
2018-10-19T07:39:52.722Z,84.22
2018-10-19T07:42:22.671Z,85.32
2018-10-19T07:44:52.994Z,84.82
2018-10-19T07:47:23.281Z,84.31
2018-10-19T07:49:53.030Z,84.78
2018-10-19T07:52:23.363Z,84.93
2018-10-19T07:54:53.365Z,85.12
2018-10-19T07:57:23.265Z,85.21
2018-10-19T08:00:06.572Z,85.75
2018-10-19T08:02:36.981Z,85.50
2018-10-19T08:05:08.842Z,85.33
2018-10-19T08:07:39.726Z,84.43
2018-10-19T08:10:10.681Z,84.68
2018-10-19T08:12:41.666Z,84.14
2018-10-19T08:15:14.027Z,85.42
2018-10-19T08:17:44.840Z,84.74
2018-10-19T08:20:15.663Z,84.77
2018-10-19T08:22:45.575Z,85.25
2018-10-19T08:25:16.173Z,85.11
2018-10-19T08:27:46.041Z,85.36
2018-10-19T08:30:16.892Z,84.60
2018-10-19T08:32:46.758Z,84.28
2018-10-19T08:35:16.711Z,84.58
2018-10-19T08:37:46.631Z,84.33
2018-10-19T08:40:16.621Z,84.26
2018-10-19T08:42:46.592Z,84.38
2018-10-19T08:45:16.650Z,84.33
2018-10-19T08:47:48.371Z,84.68
2018-10-19T08:50:26.598Z,84.48
2018-10-19T08:52:56.671Z,83.79
2018-10-19T08:55:27.263Z,84.03
2018-10-19T08:57:57.888Z,83.22
2018-10-19T09:00:27.731Z,84.41
2018-10-19T09:02:57.727Z,83.45
2018-10-19T09:05:29.717Z,83.50
2018-10-19T09:07:59.747Z,83.54
2018-10-19T09:10:29.688Z,83.40
2018-10-19T09:13:00.962Z,84.16
2018-10-19T09:15:31.633Z,83.92
2018-10-19T09:18:02.474Z,84.06
2018-10-19T09:20:32.582Z,84.04
2018-10-19T09:23:02.610Z,83.67
2018-10-19T09:25:33.428Z,83.59
2018-10-19T09:28:03.300Z,83.54
2018-10-19T09:30:33.516Z,83.94
2018-10-19T09:33:03.441Z,83.54
2018-10-19T09:35:33.579Z,83.41
2018-10-19T09:38:03.431Z,83.38
2018-10-19T09:40:33.666Z,83.18
2018-10-19T09:43:03.448Z,82.72
2018-10-19T09:45:33.698Z,83.10
2018-10-19T09:48:04.408Z,83.10
2018-10-19T09:50:34.643Z,82.54
2018-10-19T09:53:09.746Z,82.42
2018-10-19T09:55:39.629Z,82.95
2018-10-19T09:58:09.748Z,82.70
2018-10-19T10:00:44.755Z,81.92
2018-10-19T10:03:14.664Z,81.60
2018-10-19T10:05:44.438Z,82.00
2018-10-19T10:08:15.817Z,81.29
2018-10-19T10:10:46.180Z,81.86
2018-10-19T10:13:15.994Z,81.61
2018-10-19T10:15:45.918Z,81.87
2018-10-19T10:18:15.752Z,81.77
2018-10-19T10:20:45.654Z,81.09
2018-10-19T10:23:15.835Z,81.58
2018-10-19T10:25:45.728Z,81.83
2018-10-19T10:28:15.754Z,81.40
2018-10-19T10:30:45.613Z,81.40
2018-10-19T10:33:15.451Z,81.47
2018-10-19T10:35:45.571Z,80.60
2018-10-19T10:38:15.581Z,80.68
2018-10-19T10:40:46.752Z,80.17
2018-10-19T10:43:16.783Z,78.45
2018-10-19T10:45:46.928Z,79.80
2018-10-19T10:48:17.116Z,79.35
2018-10-19T10:50:47.039Z,79.46
2018-10-19T10:53:17.111Z,79.95
2018-10-19T10:55:47.063Z,79.43
2018-10-19T10:58:17.241Z,79.25
2018-10-19T11:00:47.363Z,78.54
2018-10-19T11:03:17.356Z,78.59
2018-10-19T11:05:49.107Z,78.23
2018-10-19T11:08:19.208Z,77.35
2018-10-19T11:10:49.208Z,77.90
2018-10-19T11:13:19.139Z,77.61
2018-10-19T11:15:49.021Z,77.42
2018-10-19T11:18:18.924Z,77.56
2018-10-19T11:20:48.952Z,76.81
2018-10-19T11:23:19.414Z,76.91
2018-10-19T11:25:49.383Z,76.90
2018-10-19T11:28:19.294Z,77.25
2018-10-19T11:30:49.324Z,77.23
2018-10-19T11:33:19.127Z,76.91
2018-10-19T11:35:48.986Z,76.47
2018-10-19T11:38:19.197Z,76.21
2018-10-19T11:40:49.243Z,76.27
2018-10-19T11:43:19.384Z,76.12
2018-10-19T11:45:49.372Z,75.64
2018-10-19T11:48:19.339Z,75.79
2018-10-19T11:50:49.378Z,75.08
2018-10-19T11:53:19.457Z,75.37
2018-10-19T11:55:49.356Z,75.93
2018-10-19T11:58:19.225Z,75.60
2018-10-19T12:00:49.027Z,76.04
2018-10-19T12:03:19.198Z,75.89
2018-10-19T12:05:49.393Z,74.68
2018-10-19T12:08:19.458Z,74.91
2018-10-19T12:10:49.366Z,74.75
2018-10-19T12:13:19.372Z,74.98
2018-10-19T12:15:49.243Z,74.85
2018-10-19T12:18:19.272Z,74.95
2018-10-19T12:20:49.311Z,73.74
2018-10-19T12:23:19.332Z,72.75
2018-10-19T12:25:49.271Z,73.32
2018-10-19T12:28:19.367Z,72.57
2018-10-19T12:30:49.379Z,72.27
2018-10-19T12:33:19.237Z,72.98
2018-10-19T12:35:49.122Z,72.83
2018-10-19T12:38:18.936Z,73.54
2018-10-19T12:40:49.077Z,73.36
2018-10-19T12:43:19.148Z,72.29
2018-10-19T12:46:31.736Z,72.07
2018-10-19T12:49:01.617Z,71.60
2018-10-19T12:51:31.481Z,71.76
2018-10-19T12:54:01.709Z,71.93
2018-10-19T12:56:31.717Z,71.79
2018-10-19T12:59:01.578Z,71.62
2018-10-19T13:01:31.879Z,71.25
2018-10-19T13:04:02.206Z,70.48
2018-10-19T13:06:32.365Z,70.54
2018-10-19T13:09:02.683Z,70.99
2018-10-19T13:11:32.489Z,71.60
2018-10-19T13:14:02.541Z,71.30
2018-10-19T13:16:32.344Z,71.10
2018-10-19T13:19:02.148Z,70.49
2018-10-19T13:21:32.261Z,70.49
2018-10-19T13:24:02.064Z,70.26
2018-10-19T13:26:32.058Z,70.25
2018-10-19T13:29:01.896Z,69.49
2018-10-19T13:31:31.803Z,71.13
2018-10-19T13:34:01.934Z,70.13
2018-10-19T13:36:31.980Z,71.03
2018-10-19T13:39:02.009Z,70.26
2018-10-19T13:41:32.053Z,70.36
2018-10-19T13:44:01.797Z,70.22
2018-10-19T13:46:31.599Z,70.92
2018-10-19T13:49:01.472Z,70.82
2018-10-19T13:51:31.510Z,71.02
2018-10-19T13:54:01.429Z,70.98
2018-10-19T13:56:31.775Z,70.58
2018-10-19T13:59:01.675Z,71.01
2018-10-19T14:01:31.630Z,70.75
2018-10-19T14:04:01.580Z,71.15
2018-10-19T14:06:31.506Z,71.27
2018-10-19T14:09:01.405Z,71.03
2018-10-19T14:11:31.300Z,71.54
2018-10-19T14:14:01.192Z,71.69
2018-10-19T14:16:31.378Z,71.04
2018-10-19T14:19:01.383Z,72.18
2018-10-19T14:21:31.414Z,71.42
2018-10-19T14:24:01.541Z,71.66
2018-10-19T14:26:31.449Z,71.83
2018-10-19T14:29:01.500Z,72.30
2018-10-19T14:31:31.429Z,72.86
2018-10-19T14:34:01.194Z,72.95
2018-10-19T14:36:31.170Z,73.02
2018-10-19T14:39:01.157Z,72.41
2018-10-19T14:41:31.094Z,72.71
2018-10-19T14:44:01.074Z,72.29
2018-10-19T14:46:31.177Z,72.21
2018-10-19T14:49:01.153Z,72.25
2018-10-19T14:51:30.735Z,71.95
2018-10-19T14:54:00.703Z,71.23
2018-10-19T14:56:30.655Z,71.70
2018-10-19T14:59:05.978Z,71.68
2018-10-19T15:01:36.188Z,71.57
2018-10-19T15:04:07.059Z,72.42
2018-10-19T15:06:37.350Z,71.70
2018-10-19T15:09:11.003Z,71.61
2018-10-19T15:11:42.317Z,71.54
2018-10-19T15:14:12.083Z,71.95
2018-10-19T15:16:42.013Z,71.03
2018-10-19T15:19:11.954Z,72.16
2018-10-19T15:21:42.057Z,72.25
2018-10-19T15:24:12.099Z,72.22
2018-10-19T15:26:42.342Z,72.17
2018-10-19T15:29:12.278Z,71.93
2018-10-19T15:31:42.000Z,71.81
2018-10-19T15:34:12.134Z,71.90
2018-10-19T15:36:42.316Z,71.60
2018-10-19T15:39:12.681Z,72.87
2018-10-19T15:41:42.623Z,72.45
2018-10-19T15:44:12.482Z,72.44
2018-10-19T15:46:42.364Z,72.52
2018-10-19T15:49:12.219Z,72.17
2018-10-19T15:51:42.262Z,72.62
2018-10-19T15:54:12.174Z,71.87
2018-10-19T15:56:41.912Z,71.75
2018-10-19T15:59:12.279Z,72.54
2018-10-19T16:01:42.632Z,72.59
2018-10-19T16:04:12.751Z,72.37
2018-10-19T16:06:42.632Z,72.69
2018-10-19T16:09:14.435Z,72.66
2018-10-19T16:11:45.039Z,73.03
2018-10-19T16:14:15.037Z,72.72
2018-10-19T16:16:45.034Z,72.61
2018-10-19T16:19:15.141Z,72.57
2018-10-19T16:21:46.145Z,72.78
2018-10-19T16:24:15.987Z,73.06
2018-10-19T16:26:46.007Z,72.58
2018-10-19T16:29:16.063Z,72.30
2018-10-19T16:31:45.950Z,73.11
2018-10-19T16:34:16.016Z,72.68
2018-10-19T16:36:46.345Z,73.26
2018-10-19T16:39:16.730Z,73.69
2018-10-19T16:41:46.539Z,74.23
2018-10-19T16:44:16.543Z,74.43
2018-10-19T16:46:46.385Z,74.03
2018-10-19T16:49:16.389Z,73.68
2018-10-19T16:51:46.342Z,74.13
2018-10-19T16:54:16.322Z,74.20
2018-10-19T16:56:47.494Z,74.02
2018-10-19T16:59:17.365Z,73.51
2018-10-19T17:01:47.291Z,74.10
2018-10-19T17:04:17.094Z,73.65
2018-10-19T17:06:46.987Z,74.02
2018-10-19T17:09:17.154Z,73.86
2018-10-19T17:11:46.889Z,74.37
2018-10-19T17:14:17.048Z,74.33
2018-10-19T17:16:46.897Z,74.31
2018-10-19T17:19:18.037Z,73.60
2018-10-19T17:21:47.941Z,74.36
2018-10-19T17:24:18.032Z,73.90
2018-10-19T17:26:48.699Z,73.85
2018-10-19T17:29:18.672Z,74.11
2018-10-19T17:31:48.704Z,74.60
2018-10-19T17:34:18.668Z,74.93
2018-10-19T17:36:48.697Z,74.84
2018-10-19T17:39:18.676Z,75.18
2018-10-19T17:41:48.850Z,75.13
2018-10-19T17:44:18.672Z,75.83
2018-10-19T17:46:49.471Z,76.83
2018-10-19T17:49:19.460Z,76.37
2018-10-19T17:51:50.416Z,76.56
2018-10-19T17:54:20.498Z,76.29
2018-10-19T17:56:50.563Z,75.66
2018-10-19T17:59:20.605Z,75.27
2018-10-19T18:01:50.716Z,74.72
2018-10-19T18:04:20.712Z,74.22
2018-10-19T18:06:50.548Z,74.47
2018-10-19T18:09:20.347Z,74.12
2018-10-19T18:11:50.127Z,75.31
2018-10-19T18:14:20.172Z,74.73
2018-10-19T18:16:50.154Z,75.79
2018-10-19T18:19:20.097Z,77.45
2018-10-19T18:21:50.020Z,77.62
2018-10-19T18:24:19.953Z,78.16
2018-10-19T18:26:49.719Z,78.73
2018-10-19T18:29:19.711Z,79.19
2018-10-19T18:31:49.747Z,78.32
2018-10-19T18:34:19.986Z,77.54
2018-10-19T18:36:49.860Z,76.44
2018-10-19T18:39:19.856Z,76.17
2018-10-19T18:41:49.733Z,75.05
2018-10-19T18:44:19.751Z,74.59
2018-10-19T18:46:49.755Z,75.43
2018-10-19T18:49:19.768Z,75.87
2018-10-19T18:51:49.802Z,76.49
2018-10-19T18:54:19.836Z,78.88
2018-10-19T18:56:49.709Z,78.58
2018-10-19T18:59:19.455Z,78.57
2018-10-19T19:01:49.499Z,77.72
2018-10-19T19:04:19.527Z,77.24
2018-10-19T19:06:49.348Z,76.04
2018-10-19T19:09:19.457Z,75.05
2018-10-19T19:11:49.543Z,74.86
2018-10-19T19:14:19.337Z,74.67
2018-10-19T19:16:49.361Z,76.91
2018-10-19T19:19:19.410Z,76.68
2018-10-19T19:21:49.436Z,78.08
2018-10-19T19:24:24.269Z,79.02
2018-10-19T19:26:54.320Z,78.72
2018-10-19T19:29:25.201Z,78.14
2018-10-19T19:31:55.369Z,78.12
2018-10-19T19:34:32.347Z,78.09
2018-10-19T19:37:02.495Z,77.19
2018-10-19T19:39:32.477Z,77.29
2018-10-19T19:42:07.700Z,78.26
2018-10-19T19:44:37.651Z,77.37
2018-10-19T19:47:07.703Z,76.14
2018-10-19T19:49:39.173Z,75.29
2018-10-19T19:52:08.948Z,74.79
2018-10-19T19:54:38.795Z,77.73
2018-10-19T19:57:08.728Z,80.49
2018-10-19T19:59:38.827Z,80.33
2018-10-19T20:02:09.193Z,80.40
2018-10-19T20:04:39.028Z,82.47
2018-10-19T20:07:08.969Z,81.93
2018-10-19T20:09:39.040Z,81.47
2018-10-19T20:12:09.121Z,80.64
2018-10-19T20:14:39.041Z,79.31
2018-10-19T20:17:09.138Z,77.46
2018-10-19T20:19:39.162Z,75.73
2018-10-19T20:22:09.739Z,76.01
2018-10-19T20:24:40.973Z,80.38
2018-10-19T20:27:11.504Z,82.24
2018-10-19T20:29:42.033Z,82.56
2018-10-19T20:32:11.946Z,80.40
2018-10-19T20:34:41.907Z,79.34
2018-10-19T20:37:11.826Z,79.63
2018-10-19T20:39:41.808Z,77.63
2018-10-19T20:42:12.725Z,81.12
2018-10-19T20:44:42.576Z,81.12
2018-10-19T20:47:12.640Z,81.60
2018-10-19T20:49:42.550Z,82.60
2018-10-19T20:52:12.644Z,81.78
2018-10-19T20:54:42.564Z,81.66
2018-10-19T20:57:12.601Z,82.37
2018-10-19T20:59:42.556Z,81.46
2018-10-19T21:02:12.564Z,82.00
2018-10-19T21:04:42.279Z,80.03
2018-10-19T21:07:12.131Z,79.08
2018-10-19T21:09:42.167Z,79.33
2018-10-19T21:12:12.213Z,79.97
2018-10-19T21:14:42.120Z,83.38
2018-10-19T21:17:12.169Z,83.01
2018-10-19T21:19:42.080Z,81.72
2018-10-19T21:22:14.075Z,79.25
2018-10-19T21:24:43.893Z,78.93
2018-10-19T21:27:13.815Z,77.39
2018-10-19T21:29:43.757Z,76.74
2018-10-19T21:32:13.763Z,76.35
2018-10-19T21:34:43.543Z,76.58
2018-10-19T21:37:13.377Z,77.82
2018-10-19T21:39:43.370Z,78.78
2018-10-19T21:42:13.338Z,77.75
2018-10-19T21:44:43.209Z,79.78
2018-10-19T21:47:13.199Z,79.55
2018-10-19T21:49:43.206Z,78.75
2018-10-19T21:52:13.166Z,77.59
2018-10-19T21:54:43.087Z,76.88
2018-10-19T21:57:12.962Z,76.09
2018-10-19T21:59:42.939Z,76.17
2018-10-19T22:02:12.911Z,75.49
2018-10-19T22:04:42.713Z,76.40
2018-10-19T22:07:12.593Z,79.14
2018-10-19T22:09:42.636Z,77.95
2018-10-19T22:12:12.563Z,76.84
2018-10-19T22:14:42.488Z,75.80
2018-10-19T22:17:12.451Z,77.40
2018-10-19T22:19:42.306Z,79.01
2018-10-19T22:22:12.277Z,79.27
2018-10-19T22:24:42.251Z,79.34
2018-10-19T22:27:12.247Z,78.89
2018-10-19T22:29:42.138Z,80.05
2018-10-19T22:32:12.129Z,78.88
2018-10-19T22:34:41.871Z,77.00
2018-10-19T22:37:11.818Z,76.00
2018-10-19T22:39:41.638Z,77.88
2018-10-19T22:42:11.619Z,79.34
2018-10-19T22:44:41.440Z,78.81
2018-10-19T22:47:11.476Z,78.40
2018-10-19T22:49:41.423Z,77.91
2018-10-19T22:52:11.533Z,77.02
2018-10-19T22:54:41.407Z,76.85
2018-10-19T22:57:11.359Z,79.59
2018-10-19T22:59:41.281Z,83.72
2018-10-19T23:02:11.169Z,83.59
2018-10-19T23:04:41.376Z,82.95
2018-10-19T23:07:11.432Z,80.56
2018-10-19T23:09:41.314Z,81.05
2018-10-19T23:12:11.267Z,81.37
2018-10-19T23:14:41.121Z,80.57
2018-10-19T23:17:11.162Z,79.51
2018-10-19T23:19:41.005Z,77.95
2018-10-19T23:22:10.861Z,77.34
2018-10-19T23:24:40.645Z,78.65
2018-10-19T23:27:10.637Z,77.83
2018-10-19T23:29:40.639Z,77.03
2018-10-19T23:32:10.548Z,76.70
2018-10-19T23:34:41.475Z,77.10
2018-10-19T23:37:11.472Z,78.38
2018-10-19T23:39:41.407Z,80.07
2018-10-19T23:42:11.269Z,79.56
2018-10-19T23:44:41.277Z,79.34
2018-10-19T23:47:11.130Z,77.92
2018-10-19T23:49:41.071Z,76.72
2018-10-19T23:52:11.161Z,76.18
2018-10-19T23:54:41.111Z,80.05
2018-10-19T23:57:11.016Z,80.43
2018-10-19T23:59:40.920Z,80.44
